sensor_id;sensor_type;location;lat;lon;timestamp;temperature;humidity
58566;DHT22;47788;46.172;-1.158;2022-09-12T00:02:23;21.50;94.90
58566;DHT22;47788;46.172;-1.158;2022-09-12T00:04:49;21.40;95.00
58566;DHT22;47788;46.172;-1.158;2022-09-12T00:07:15;21.40;94.90
58566;DHT22;47788;46.172;-1.158;2022-09-12T00:09:40;21.30;94.80
58566;DHT22;47788;46.172;-1.158;2022-09-12T00:12:06;21.30;94.90
58566;DHT22;47788;46.172;-1.158;2022-09-12T00:14:32;21.30;95.10
58566;DHT22;47788;46.172;-1.158;2022-09-12T00:16:58;21.30;95.00
58566;DHT22;47788;46.172;-1.158;2022-09-12T00:19:26;21.30;95.20
58566;DHT22;47788;46.172;-1.158;2022-09-12T00:21:51;21.20;95.40
58566;DHT22;47788;46.172;-1.158;2022-09-12T00:24:17;21.20;95.40
58566;DHT22;47788;46.172;-1.158;2022-09-12T00:26:43;21.20;95.50
58566;DHT22;47788;46.172;-1.158;2022-09-12T00:29:15;21.20;95.70
58566;DHT22;47788;46.172;-1.158;2022-09-12T00:31:41;21.20;95.90
58566;DHT22;47788;46.172;-1.158;2022-09-12T00:34:07;21.20;95.40
58566;DHT22;47788;46.172;-1.158;2022-09-12T00:36:33;21.10;95.70
58566;DHT22;47788;46.172;-1.158;2022-09-12T00:38:59;21.10;95.70
58566;DHT22;47788;46.172;-1.158;2022-09-12T00:55:06;21.00;96.00
58566;DHT22;47788;46.172;-1.158;2022-09-12T00:57:36;21.10;96.20
58566;DHT22;47788;46.172;-1.158;2022-09-12T01:00:15;21.10;96.20
58566;DHT22;47788;46.172;-1.158;2022-09-12T01:02:54;21.10;96.20
58566;DHT22;47788;46.172;-1.158;2022-09-12T01:05:22;21.00;96.50
58566;DHT22;47788;46.172;-1.158;2022-09-12T01:07:49;21.10;96.40
58566;DHT22;47788;46.172;-1.158;2022-09-12T01:10:15;20.90;96.40
58566;DHT22;47788;46.172;-1.158;2022-09-12T01:12:42;20.90;96.60
58566;DHT22;47788;46.172;-1.158;2022-09-12T01:15:08;20.90;96.90
58566;DHT22;47788;46.172;-1.158;2022-09-12T01:17:53;20.90;96.90
58566;DHT22;47788;46.172;-1.158;2022-09-12T01:26:05;20.80;97.00
58566;DHT22;47788;46.172;-1.158;2022-09-12T01:31:21;20.80;97.30
58566;DHT22;47788;46.172;-1.158;2022-09-12T01:33:56;20.80;97.10
58566;DHT22;47788;46.172;-1.158;2022-09-12T01:44:55;20.80;97.60
58566;DHT22;47788;46.172;-1.158;2022-09-12T01:50:17;20.70;97.60
58566;DHT22;47788;46.172;-1.158;2022-09-12T01:52:51;20.70;97.70
58566;DHT22;47788;46.172;-1.158;2022-09-12T01:55:25;20.60;98.00
58566;DHT22;47788;46.172;-1.158;2022-09-12T02:00:21;20.60;98.00
58566;DHT22;47788;46.172;-1.158;2022-09-12T02:05:35;20.60;98.10
58566;DHT22;47788;46.172;-1.158;2022-09-12T02:08:12;20.50;98.10
58566;DHT22;47788;46.172;-1.158;2022-09-12T02:10:56;20.60;98.10
58566;DHT22;47788;46.172;-1.158;2022-09-12T02:13:29;20.60;98.10
58566;DHT22;47788;46.172;-1.158;2022-09-12T02:16:10;20.60;98.30
58566;DHT22;47788;46.172;-1.158;2022-09-12T02:18:44;20.50;98.30
58566;DHT22;47788;46.172;-1.158;2022-09-12T02:21:11;20.50;98.30
58566;DHT22;47788;46.172;-1.158;2022-09-12T02:23:42;20.50;98.20
58566;DHT22;47788;46.172;-1.158;2022-09-12T02:26:20;20.40;98.40
58566;DHT22;47788;46.172;-1.158;2022-09-12T02:28:47;20.40;98.40
58566;DHT22;47788;46.172;-1.158;2022-09-12T02:34:31;20.40;98.50
58566;DHT22;47788;46.172;-1.158;2022-09-12T02:39:53;20.40;98.70
58566;DHT22;47788;46.172;-1.158;2022-09-12T02:42:19;20.40;98.60
58566;DHT22;47788;46.172;-1.158;2022-09-12T02:44:45;20.40;98.80
58566;DHT22;47788;46.172;-1.158;2022-09-12T02:47:18;20.40;98.80
58566;DHT22;47788;46.172;-1.158;2022-09-12T02:49:46;20.30;98.90
58566;DHT22;47788;46.172;-1.158;2022-09-12T02:52:12;20.30;98.80
58566;DHT22;47788;46.172;-1.158;2022-09-12T02:54:37;20.30;99.20
58566;DHT22;47788;46.172;-1.158;2022-09-12T02:57:14;20.20;99.00
58566;DHT22;47788;46.172;-1.158;2022-09-12T02:59:40;20.20;99.00
58566;DHT22;47788;46.172;-1.158;2022-09-12T03:05:16;20.20;99.00
58566;DHT22;47788;46.172;-1.158;2022-09-12T03:10:40;20.20;99.10
58566;DHT22;47788;46.172;-1.158;2022-09-12T03:13:21;20.20;99.10
58566;DHT22;47788;46.172;-1.158;2022-09-12T03:16:21;20.20;99.30
58566;DHT22;47788;46.172;-1.158;2022-09-12T03:19:02;20.20;99.40
58566;DHT22;47788;46.172;-1.158;2022-09-12T03:27:29;20.20;99.80
58566;DHT22;47788;46.172;-1.158;2022-09-12T03:29:56;20.10;99.80
58566;DHT22;47788;46.172;-1.158;2022-09-12T03:32:44;20.10;99.90
58566;DHT22;47788;46.172;-1.158;2022-09-12T03:35:12;20.00;99.90
58566;DHT22;47788;46.172;-1.158;2022-09-12T03:37:38;20.00;99.90
58566;DHT22;47788;46.172;-1.158;2022-09-12T03:40:04;20.00;99.90
58566;DHT22;47788;46.172;-1.158;2022-09-12T03:42:30;20.00;99.90
58566;DHT22;47788;46.172;-1.158;2022-09-12T03:44:56;20.00;99.90
58566;DHT22;47788;46.172;-1.158;2022-09-12T03:47:21;20.00;99.90
58566;DHT22;47788;46.172;-1.158;2022-09-12T03:49:47;20.00;99.90
58566;DHT22;47788;46.172;-1.158;2022-09-12T03:52:13;20.00;99.90
58566;DHT22;47788;46.172;-1.158;2022-09-12T03:54:38;19.90;99.90
58566;DHT22;47788;46.172;-1.158;2022-09-12T03:57:04;20.00;99.90
58566;DHT22;47788;46.172;-1.158;2022-09-12T03:59:30;20.00;99.90
58566;DHT22;47788;46.172;-1.158;2022-09-12T04:01:55;20.00;99.90
58566;DHT22;47788;46.172;-1.158;2022-09-12T04:04:21;20.00;99.90
58566;DHT22;47788;46.172;-1.158;2022-09-12T04:06:47;20.00;99.90
58566;DHT22;47788;46.172;-1.158;2022-09-12T04:09:12;19.90;99.90
58566;DHT22;47788;46.172;-1.158;2022-09-12T04:11:38;19.90;99.90
58566;DHT22;47788;46.172;-1.158;2022-09-12T04:14:03;19.90;99.90
58566;DHT22;47788;46.172;-1.158;2022-09-12T04:16:29;19.90;99.90
58566;DHT22;47788;46.172;-1.158;2022-09-12T04:18:55;19.90;99.90
58566;DHT22;47788;46.172;-1.158;2022-09-12T04:21:20;19.90;99.80
58566;DHT22;47788;46.172;-1.158;2022-09-12T04:23:46;19.90;99.90
58566;DHT22;47788;46.172;-1.158;2022-09-12T04:26:13;19.90;99.90
58566;DHT22;47788;46.172;-1.158;2022-09-12T04:28:40;19.80;99.90
58566;DHT22;47788;46.172;-1.158;2022-09-12T04:31:08;19.90;99.90
58566;DHT22;47788;46.172;-1.158;2022-09-12T04:33:35;19.90;99.90
58566;DHT22;47788;46.172;-1.158;2022-09-12T04:36:10;19.80;99.80
58566;DHT22;47788;46.172;-1.158;2022-09-12T04:38:36;19.80;99.90
58566;DHT22;47788;46.172;-1.158;2022-09-12T04:41:22;19.90;99.90
58566;DHT22;47788;46.172;-1.158;2022-09-12T04:43:57;19.90;99.90
58566;DHT22;47788;46.172;-1.158;2022-09-12T04:46:24;19.90;99.90
58566;DHT22;47788;46.172;-1.158;2022-09-12T04:48:50;19.90;99.90
58566;DHT22;47788;46.172;-1.158;2022-09-12T04:51:22;19.90;99.90
58566;DHT22;47788;46.172;-1.158;2022-09-12T04:53:49;19.90;99.90
58566;DHT22;47788;46.172;-1.158;2022-09-12T04:56:15;20.00;99.90
58566;DHT22;47788;46.172;-1.158;2022-09-12T04:58:41;19.90;99.80
58566;DHT22;47788;46.172;-1.158;2022-09-12T05:01:09;19.90;99.90
58566;DHT22;47788;46.172;-1.158;2022-09-12T05:03:36;19.90;99.90
58566;DHT22;47788;46.172;-1.158;2022-09-12T05:06:06;19.90;99.90
58566;DHT22;47788;46.172;-1.158;2022-09-12T05:08:33;19.80;99.90
58566;DHT22;47788;46.172;-1.158;2022-09-12T05:11:19;19.80;99.90
58566;DHT22;47788;46.172;-1.158;2022-09-12T05:13:46;19.70;99.90
58566;DHT22;47788;46.172;-1.158;2022-09-12T05:16:13;19.70;99.90
58566;DHT22;47788;46.172;-1.158;2022-09-12T05:18:43;19.70;99.90
58566;DHT22;47788;46.172;-1.158;2022-09-12T05:21:14;19.70;99.90
58566;DHT22;47788;46.172;-1.158;2022-09-12T05:23:41;19.70;99.90
58566;DHT22;47788;46.172;-1.158;2022-09-12T05:26:07;19.70;99.90
58566;DHT22;47788;46.172;-1.158;2022-09-12T05:28:37;19.70;99.90
58566;DHT22;47788;46.172;-1.158;2022-09-12T05:33:29;19.70;99.90
58566;DHT22;47788;46.172;-1.158;2022-09-12T05:35:54;19.70;99.90
58566;DHT22;47788;46.172;-1.158;2022-09-12T05:38:20;19.70;99.90
58566;DHT22;47788;46.172;-1.158;2022-09-12T05:40:46;19.70;99.90
58566;DHT22;47788;46.172;-1.158;2022-09-12T05:43:11;19.80;99.80
58566;DHT22;47788;46.172;-1.158;2022-09-12T05:45:37;19.80;99.80
58566;DHT22;47788;46.172;-1.158;2022-09-12T05:48:06;19.80;99.80
58566;DHT22;47788;46.172;-1.158;2022-09-12T05:50:32;19.80;99.50
58566;DHT22;47788;46.172;-1.158;2022-09-12T05:52:57;19.90;99.50
58566;DHT22;47788;46.172;-1.158;2022-09-12T05:55:23;19.90;99.60
58566;DHT22;47788;46.172;-1.158;2022-09-12T05:57:49;19.90;99.70
58566;DHT22;47788;46.172;-1.158;2022-09-12T06:00:16;19.90;99.60
58566;DHT22;47788;46.172;-1.158;2022-09-12T06:02:42;19.90;99.70
58566;DHT22;47788;46.172;-1.158;2022-09-12T06:05:08;20.00;99.60
58566;DHT22;47788;46.172;-1.158;2022-09-12T06:07:33;20.00;99.50
58566;DHT22;47788;46.172;-1.158;2022-09-12T06:10:00;20.00;99.60
58566;DHT22;47788;46.172;-1.158;2022-09-12T06:12:28;20.10;99.40
58566;DHT22;47788;46.172;-1.158;2022-09-12T06:14:54;20.10;99.30
58566;DHT22;47788;46.172;-1.158;2022-09-12T06:17:20;20.10;99.30
58566;DHT22;47788;46.172;-1.158;2022-09-12T06:19:47;20.20;99.60
58566;DHT22;47788;46.172;-1.158;2022-09-12T06:22:15;20.20;99.30
58566;DHT22;47788;46.172;-1.158;2022-09-12T06:24:42;20.30;99.50
58566;DHT22;47788;46.172;-1.158;2022-09-12T06:27:07;20.30;99.30
58566;DHT22;47788;46.172;-1.158;2022-09-12T06:29:33;20.40;99.50
58566;DHT22;47788;46.172;-1.158;2022-09-12T06:31:59;20.40;99.40
58566;DHT22;47788;46.172;-1.158;2022-09-12T06:34:24;20.50;99.40
58566;DHT22;47788;46.172;-1.158;2022-09-12T06:36:51;20.60;99.30
58566;DHT22;47788;46.172;-1.158;2022-09-12T06:39:21;20.60;99.20
58566;DHT22;47788;46.172;-1.158;2022-09-12T06:41:49;20.60;99.10
58566;DHT22;47788;46.172;-1.158;2022-09-12T06:44:17;20.70;99.20
58566;DHT22;47788;46.172;-1.158;2022-09-12T06:46:44;20.80;98.90
58566;DHT22;47788;46.172;-1.158;2022-09-12T06:49:10;20.80;99.00
58566;DHT22;47788;46.172;-1.158;2022-09-12T06:51:36;20.90;99.10
58566;DHT22;47788;46.172;-1.158;2022-09-12T06:54:02;21.00;98.90
58566;DHT22;47788;46.172;-1.158;2022-09-12T06:56:28;21.00;98.60
58566;DHT22;47788;46.172;-1.158;2022-09-12T06:58:56;21.10;98.60
58566;DHT22;47788;46.172;-1.158;2022-09-12T07:01:27;21.20;98.30
58566;DHT22;47788;46.172;-1.158;2022-09-12T07:03:55;21.20;98.30
58566;DHT22;47788;46.172;-1.158;2022-09-12T07:06:22;21.30;98.20
58566;DHT22;47788;46.172;-1.158;2022-09-12T07:08:49;21.30;98.20
58566;DHT22;47788;46.172;-1.158;2022-09-12T07:11:21;21.40;98.30
58566;DHT22;47788;46.172;-1.158;2022-09-12T07:13:52;21.40;98.30
58566;DHT22;47788;46.172;-1.158;2022-09-12T07:16:18;21.50;98.20
58566;DHT22;47788;46.172;-1.158;2022-09-12T07:18:44;21.60;98.10
58566;DHT22;47788;46.172;-1.158;2022-09-12T07:21:12;21.60;98.20
58566;DHT22;47788;46.172;-1.158;2022-09-12T07:23:39;21.70;98.00
58566;DHT22;47788;46.172;-1.158;2022-09-12T07:26:08;21.80;97.90
58566;DHT22;47788;46.172;-1.158;2022-09-12T07:28:35;21.90;97.90
58566;DHT22;47788;46.172;-1.158;2022-09-12T07:31:09;21.90;97.50
58566;DHT22;47788;46.172;-1.158;2022-09-12T07:33:36;22.00;97.40
58566;DHT22;47788;46.172;-1.158;2022-09-12T07:36:03;22.10;97.40
58566;DHT22;47788;46.172;-1.158;2022-09-12T07:38:29;22.20;97.20
58566;DHT22;47788;46.172;-1.158;2022-09-12T07:40:55;22.30;97.10
58566;DHT22;47788;46.172;-1.158;2022-09-12T07:43:21;22.30;97.10
58566;DHT22;47788;46.172;-1.158;2022-09-12T07:45:47;22.40;96.90
58566;DHT22;47788;46.172;-1.158;2022-09-12T07:48:13;22.50;96.80
58566;DHT22;47788;46.172;-1.158;2022-09-12T07:50:40;22.60;96.70
58566;DHT22;47788;46.172;-1.158;2022-09-12T07:53:06;22.70;96.80
58566;DHT22;47788;46.172;-1.158;2022-09-12T07:55:32;22.80;96.60
58566;DHT22;47788;46.172;-1.158;2022-09-12T07:57:57;22.90;96.40
58566;DHT22;47788;46.172;-1.158;2022-09-12T08:00:23;23.10;96.00
58566;DHT22;47788;46.172;-1.158;2022-09-12T08:02:53;23.20;96.00
58566;DHT22;47788;46.172;-1.158;2022-09-12T08:05:19;23.30;95.90
58566;DHT22;47788;46.172;-1.158;2022-09-12T08:07:47;23.40;95.70
58566;DHT22;47788;46.172;-1.158;2022-09-12T08:10:14;23.50;95.50
58566;DHT22;47788;46.172;-1.158;2022-09-12T08:12:40;23.60;95.40
58566;DHT22;47788;46.172;-1.158;2022-09-12T08:15:06;23.70;95.40
58566;DHT22;47788;46.172;-1.158;2022-09-12T08:17:33;23.80;95.10
58566;DHT22;47788;46.172;-1.158;2022-09-12T08:19:58;23.80;94.90
58566;DHT22;47788;46.172;-1.158;2022-09-12T08:22:24;23.90;95.10
58566;DHT22;47788;46.172;-1.158;2022-09-12T08:24:50;24.00;94.80
58566;DHT22;47788;46.172;-1.158;2022-09-12T08:27:16;24.00;94.90
58566;DHT22;47788;46.172;-1.158;2022-09-12T08:29:41;24.20;94.70
58566;DHT22;47788;46.172;-1.158;2022-09-12T08:32:07;24.20;95.20
58566;DHT22;47788;46.172;-1.158;2022-09-12T08:34:33;24.30;94.90
58566;DHT22;47788;46.172;-1.158;2022-09-12T08:36:59;24.40;94.60
58566;DHT22;47788;46.172;-1.158;2022-09-12T08:39:24;24.60;94.50
58566;DHT22;47788;46.172;-1.158;2022-09-12T08:42:03;24.70;94.30
58566;DHT22;47788;46.172;-1.158;2022-09-12T08:44:54;24.80;94.60
58566;DHT22;47788;46.172;-1.158;2022-09-12T08:47:24;24.80;94.20
58566;DHT22;47788;46.172;-1.158;2022-09-12T08:52:36;25.00;93.70
58566;DHT22;47788;46.172;-1.158;2022-09-12T08:55:05;25.10;93.60
58566;DHT22;47788;46.172;-1.158;2022-09-12T08:57:36;25.20;94.30
58566;DHT22;47788;46.172;-1.158;2022-09-12T09:00:03;25.30;93.60
58566;DHT22;47788;46.172;-1.158;2022-09-12T09:05:18;25.50;93.50
58566;DHT22;47788;46.172;-1.158;2022-09-12T09:13:37;25.80;93.70
58566;DHT22;47788;46.172;-1.158;2022-09-12T09:16:30;25.90;93.80
58566;DHT22;47788;46.172;-1.158;2022-09-12T09:18:59;26.10;94.00
58566;DHT22;47788;46.172;-1.158;2022-09-12T09:21:40;26.20;92.90
58566;DHT22;47788;46.172;-1.158;2022-09-12T09:24:11;26.30;93.30
58566;DHT22;47788;46.172;-1.158;2022-09-12T09:26:57;26.40;93.00
58566;DHT22;47788;46.172;-1.158;2022-09-12T09:29:43;26.60;92.60
58566;DHT22;47788;46.172;-1.158;2022-09-12T09:32:32;26.80;92.00
58566;DHT22;47788;46.172;-1.158;2022-09-12T09:35:17;27.00;92.10
58566;DHT22;47788;46.172;-1.158;2022-09-12T09:37:49;27.20;91.60
58566;DHT22;47788;46.172;-1.158;2022-09-12T09:43:16;27.60;91.50
58566;DHT22;47788;46.172;-1.158;2022-09-12T09:45:44;27.60;91.10
58566;DHT22;47788;46.172;-1.158;2022-09-12T09:48:40;27.60;91.80
58566;DHT22;47788;46.172;-1.158;2022-09-12T09:51:08;27.50;92.00
58566;DHT22;47788;46.172;-1.158;2022-09-12T09:53:49;27.50;91.80
58566;DHT22;47788;46.172;-1.158;2022-09-12T09:58:47;27.60;91.60
58566;DHT22;47788;46.172;-1.158;2022-09-12T10:01:16;27.60;91.50
58566;DHT22;47788;46.172;-1.158;2022-09-12T10:03:52;27.50;91.70
58566;DHT22;47788;46.172;-1.158;2022-09-12T10:08:48;28.00;91.40
58566;DHT22;47788;46.172;-1.158;2022-09-12T10:13:56;28.30;91.00
58566;DHT22;47788;46.172;-1.158;2022-09-12T10:16:31;28.40;91.30
58566;DHT22;47788;46.172;-1.158;2022-09-12T10:18:59;28.50;91.60
58566;DHT22;47788;46.172;-1.158;2022-09-12T10:24:27;28.60;91.60
58566;DHT22;47788;46.172;-1.158;2022-09-12T10:27:07;28.80;91.30
58566;DHT22;47788;46.172;-1.158;2022-09-12T10:29:39;28.90;91.10
58566;DHT22;47788;46.172;-1.158;2022-09-12T10:32:10;29.10;91.10
58566;DHT22;47788;46.172;-1.158;2022-09-12T10:34:41;29.00;91.10
58566;DHT22;47788;46.172;-1.158;2022-09-12T10:37:15;29.00;90.90
58566;DHT22;47788;46.172;-1.158;2022-09-12T10:39:53;28.90;91.00
58566;DHT22;47788;46.172;-1.158;2022-09-12T10:42:43;28.90;91.10
58566;DHT22;47788;46.172;-1.158;2022-09-12T10:45:26;28.80;91.20
58566;DHT22;47788;46.172;-1.158;2022-09-12T10:47:53;28.70;91.40
58566;DHT22;47788;46.172;-1.158;2022-09-12T10:52:52;28.20;91.30
58566;DHT22;47788;46.172;-1.158;2022-09-12T10:55:21;28.20;91.80
58566;DHT22;47788;46.172;-1.158;2022-09-12T10:58:07;28.10;91.90
58566;DHT22;47788;46.172;-1.158;2022-09-12T11:00:39;28.10;91.60
58566;DHT22;47788;46.172;-1.158;2022-09-12T11:03:33;28.10;91.50
58566;DHT22;47788;46.172;-1.158;2022-09-12T11:06:05;28.20;91.70
58566;DHT22;47788;46.172;-1.158;2022-09-12T11:08:39;28.30;91.30
58566;DHT22;47788;46.172;-1.158;2022-09-12T11:14:32;28.70;91.00
58566;DHT22;47788;46.172;-1.158;2022-09-12T11:22:40;29.30;90.60
58566;DHT22;47788;46.172;-1.158;2022-09-12T11:28:26;29.60;90.20
58566;DHT22;47788;46.172;-1.158;2022-09-12T11:33:59;30.00;89.40
58566;DHT22;47788;46.172;-1.158;2022-09-12T11:39:25;30.50;89.70
58566;DHT22;47788;46.172;-1.158;2022-09-12T11:41:59;31.00;88.90
58566;DHT22;47788;46.172;-1.158;2022-09-12T11:44:40;31.60;87.80
58566;DHT22;47788;46.172;-1.158;2022-09-12T11:47:10;31.90;87.20
58566;DHT22;47788;46.172;-1.158;2022-09-12T11:52:24;31.80;86.70
58566;DHT22;47788;46.172;-1.158;2022-09-12T11:57:39;31.80;86.80
58566;DHT22;47788;46.172;-1.158;2022-09-12T12:00:26;31.70;86.30
58566;DHT22;47788;46.172;-1.158;2022-09-12T12:05:50;32.00;87.30
58566;DHT22;47788;46.172;-1.158;2022-09-12T12:08:20;32.60;85.80
58566;DHT22;47788;46.172;-1.158;2022-09-12T12:11:02;33.10;85.90
58566;DHT22;47788;46.172;-1.158;2022-09-12T12:16:11;33.80;85.40
58566;DHT22;47788;46.172;-1.158;2022-09-12T12:18:39;33.90;83.80
58566;DHT22;47788;46.172;-1.158;2022-09-12T12:21:36;33.70;83.90
58566;DHT22;47788;46.172;-1.158;2022-09-12T12:34:29;32.60;85.40
58566;DHT22;47788;46.172;-1.158;2022-09-12T12:36:55;32.90;85.50
58566;DHT22;47788;46.172;-1.158;2022-09-12T12:41:59;33.00;84.70
58566;DHT22;47788;46.172;-1.158;2022-09-12T12:44:58;33.10;84.60
58566;DHT22;47788;46.172;-1.158;2022-09-12T12:52:48;33.60;84.00
58566;DHT22;47788;46.172;-1.158;2022-09-12T12:55:37;33.60;83.50
58566;DHT22;47788;46.172;-1.158;2022-09-12T12:58:05;33.30;83.80
58566;DHT22;47788;46.172;-1.158;2022-09-12T13:00:34;33.10;84.20
58566;DHT22;47788;46.172;-1.158;2022-09-12T13:05:42;32.80;84.90
58566;DHT22;47788;46.172;-1.158;2022-09-12T13:08:24;33.00;84.90
58566;DHT22;47788;46.172;-1.158;2022-09-12T13:13:39;33.50;84.60
58566;DHT22;47788;46.172;-1.158;2022-09-12T13:16:09;33.50;84.40
58566;DHT22;47788;46.172;-1.158;2022-09-12T13:18:48;33.30;84.90
58566;DHT22;47788;46.172;-1.158;2022-09-12T13:21:15;33.00;84.70
58566;DHT22;47788;46.172;-1.158;2022-09-12T13:23:41;32.80;84.60
58566;DHT22;47788;46.172;-1.158;2022-09-12T13:26:12;32.90;85.50
58566;DHT22;47788;46.172;-1.158;2022-09-12T13:28:38;33.20;85.50
58566;DHT22;47788;46.172;-1.158;2022-09-12T13:31:11;33.90;84.70
58566;DHT22;47788;46.172;-1.158;2022-09-12T13:44:28;35.30;81.40
58566;DHT22;47788;46.172;-1.158;2022-09-12T13:46:58;35.50;81.10
58566;DHT22;47788;46.172;-1.158;2022-09-12T13:49:33;35.70;81.30
58566;DHT22;47788;46.172;-1.158;2022-09-12T13:52:05;35.90;80.70
58566;DHT22;47788;46.172;-1.158;2022-09-12T13:54:35;35.90;80.00
58566;DHT22;47788;46.172;-1.158;2022-09-12T13:57:03;35.70;80.70
58566;DHT22;47788;46.172;-1.158;2022-09-12T13:59:37;35.90;80.70
58566;DHT22;47788;46.172;-1.158;2022-09-12T14:02:19;35.80;79.70
58566;DHT22;47788;46.172;-1.158;2022-09-12T14:04:50;35.30;80.10
58566;DHT22;47788;46.172;-1.158;2022-09-12T14:07:38;34.60;79.80
58566;DHT22;47788;46.172;-1.158;2022-09-12T14:10:05;34.20;81.20
58566;DHT22;47788;46.172;-1.158;2022-09-12T14:12:39;33.80;82.20
58566;DHT22;47788;46.172;-1.158;2022-09-12T14:15:22;33.50;82.40
58566;DHT22;47788;46.172;-1.158;2022-09-12T14:17:52;33.10;82.70
58566;DHT22;47788;46.172;-1.158;2022-09-12T14:20:20;33.10;83.10
58566;DHT22;47788;46.172;-1.158;2022-09-12T14:22:49;33.10;83.10
58566;DHT22;47788;46.172;-1.158;2022-09-12T14:25:20;33.10;83.20
58566;DHT22;47788;46.172;-1.158;2022-09-12T14:27:49;33.00;83.70
58566;DHT22;47788;46.172;-1.158;2022-09-12T14:30:30;32.90;83.90
58566;DHT22;47788;46.172;-1.158;2022-09-12T14:33:15;32.90;83.90
58566;DHT22;47788;46.172;-1.158;2022-09-12T14:35:50;32.80;84.30
58566;DHT22;47788;46.172;-1.158;2022-09-12T14:38:22;32.80;83.90
58566;DHT22;47788;46.172;-1.158;2022-09-12T14:40:57;32.60;84.10
58566;DHT22;47788;46.172;-1.158;2022-09-12T14:43:27;32.40;84.70
58566;DHT22;47788;46.172;-1.158;2022-09-12T14:46:02;32.30;84.60
58566;DHT22;47788;46.172;-1.158;2022-09-12T14:48:35;32.10;85.00
58566;DHT22;47788;46.172;-1.158;2022-09-12T14:51:02;32.10;85.00
58566;DHT22;47788;46.172;-1.158;2022-09-12T14:53:36;31.90;85.40
58566;DHT22;47788;46.172;-1.158;2022-09-12T14:56:07;31.90;85.30
58566;DHT22;47788;46.172;-1.158;2022-09-12T14:58:33;31.90;85.10
58566;DHT22;47788;46.172;-1.158;2022-09-12T15:06:29;32.10;85.90
58566;DHT22;47788;46.172;-1.158;2022-09-12T15:08:57;32.30;85.40
58566;DHT22;47788;46.172;-1.158;2022-09-12T15:11:23;32.40;85.30
58566;DHT22;47788;46.172;-1.158;2022-09-12T15:13:51;32.70;85.60
58566;DHT22;47788;46.172;-1.158;2022-09-12T15:16:16;33.00;84.90
58566;DHT22;47788;46.172;-1.158;2022-09-12T15:18:42;33.90;83.30
58566;DHT22;47788;46.172;-1.158;2022-09-12T15:21:12;35.00;81.40
58566;DHT22;47788;46.172;-1.158;2022-09-12T15:23:50;35.60;80.50
58566;DHT22;47788;46.172;-1.158;2022-09-12T15:26:19;35.60;80.00
58566;DHT22;47788;46.172;-1.158;2022-09-12T15:28:45;36.20;79.50
58566;DHT22;47788;46.172;-1.158;2022-09-12T15:33:50;39.20;74.70
58566;DHT22;47788;46.172;-1.158;2022-09-12T15:36:19;39.70;73.60
58566;DHT22;47788;46.172;-1.158;2022-09-12T15:38:45;38.90;73.30
58566;DHT22;47788;46.172;-1.158;2022-09-12T15:43:50;39.10;73.40
58566;DHT22;47788;46.172;-1.158;2022-09-12T15:46:17;40.50;71.50
58566;DHT22;47788;46.172;-1.158;2022-09-12T15:48:43;40.90;71.10
58566;DHT22;47788;46.172;-1.158;2022-09-12T15:51:19;41.40;70.30
58566;DHT22;47788;46.172;-1.158;2022-09-12T15:53:46;42.10;68.70
58566;DHT22;47788;46.172;-1.158;2022-09-12T15:56:17;41.30;69.60
58566;DHT22;47788;46.172;-1.158;2022-09-12T15:58:43;41.20;69.80
58566;DHT22;47788;46.172;-1.158;2022-09-12T16:01:17;39.80;69.50
58566;DHT22;47788;46.172;-1.158;2022-09-12T16:03:46;37.20;71.50
58566;DHT22;47788;46.172;-1.158;2022-09-12T16:06:12;35.00;73.90
58566;DHT22;47788;46.172;-1.158;2022-09-12T16:08:39;34.00;75.50
58566;DHT22;47788;46.172;-1.158;2022-09-12T16:11:20;33.50;76.00
58566;DHT22;47788;46.172;-1.158;2022-09-12T16:13:46;33.40;76.00
58566;DHT22;47788;46.172;-1.158;2022-09-12T16:16:11;34.10;75.70
58566;DHT22;47788;46.172;-1.158;2022-09-12T16:18:40;35.80;74.30
58566;DHT22;47788;46.172;-1.158;2022-09-12T16:21:06;37.80;72.40
58566;DHT22;47788;46.172;-1.158;2022-09-12T16:23:33;39.00;71.30
58566;DHT22;47788;46.172;-1.158;2022-09-12T16:26:04;39.80;70.70
58566;DHT22;47788;46.172;-1.158;2022-09-12T16:28:30;40.90;69.10
58566;DHT22;47788;46.172;-1.158;2022-09-12T16:31:02;40.20;69.50
58566;DHT22;47788;46.172;-1.158;2022-09-12T16:33:29;38.80;70.60
58566;DHT22;47788;46.172;-1.158;2022-09-12T16:36:04;37.70;71.90
58566;DHT22;47788;46.172;-1.158;2022-09-12T16:38:33;36.70;73.10
58566;DHT22;47788;46.172;-1.158;2022-09-12T16:41:05;35.80;74.40
58566;DHT22;47788;46.172;-1.158;2022-09-12T16:43:33;35.00;75.40
58566;DHT22;47788;46.172;-1.158;2022-09-12T16:46:04;34.40;76.70
58566;DHT22;47788;46.172;-1.158;2022-09-12T16:48:30;33.50;77.40
58566;DHT22;47788;46.172;-1.158;2022-09-12T16:50:59;32.70;78.80
58566;DHT22;47788;46.172;-1.158;2022-09-12T16:53:32;32.10;79.80
58566;DHT22;47788;46.172;-1.158;2022-09-12T16:55:58;31.40;81.00
58566;DHT22;47788;46.172;-1.158;2022-09-12T16:58:24;31.10;81.50
58566;DHT22;47788;46.172;-1.158;2022-09-12T17:01:05;30.90;82.20
58566;DHT22;47788;46.172;-1.158;2022-09-12T17:03:32;30.60;82.30
58566;DHT22;47788;46.172;-1.158;2022-09-12T17:05:59;30.60;82.70
58566;DHT22;47788;46.172;-1.158;2022-09-12T17:08:26;30.60;82.80
58566;DHT22;47788;46.172;-1.158;2022-09-12T17:10:52;30.60;83.40
58566;DHT22;47788;46.172;-1.158;2022-09-12T17:13:18;30.60;82.90
58566;DHT22;47788;46.172;-1.158;2022-09-12T17:15:43;30.70;83.20
58566;DHT22;47788;46.172;-1.158;2022-09-12T17:18:09;30.70;83.40
58566;DHT22;47788;46.172;-1.158;2022-09-12T17:20:35;30.80;83.40
58566;DHT22;47788;46.172;-1.158;2022-09-12T17:23:01;30.80;82.60
58566;DHT22;47788;46.172;-1.158;2022-09-12T17:25:26;30.80;82.40
58566;DHT22;47788;46.172;-1.158;2022-09-12T17:27:52;30.80;81.60
58566;DHT22;47788;46.172;-1.158;2022-09-12T17:30:18;30.70;81.90
58566;DHT22;47788;46.172;-1.158;2022-09-12T17:32:43;30.60;81.50
58566;DHT22;47788;46.172;-1.158;2022-09-12T17:35:09;30.60;82.30
58566;DHT22;47788;46.172;-1.158;2022-09-12T17:37:35;30.50;81.50
58566;DHT22;47788;46.172;-1.158;2022-09-12T17:40:02;30.40;82.70
58566;DHT22;47788;46.172;-1.158;2022-09-12T17:42:28;30.20;82.60
58566;DHT22;47788;46.172;-1.158;2022-09-12T17:44:53;30.10;82.60
58566;DHT22;47788;46.172;-1.158;2022-09-12T17:47:20;29.90;83.00
58566;DHT22;47788;46.172;-1.158;2022-09-12T17:49:45;29.80;83.50
58566;DHT22;47788;46.172;-1.158;2022-09-12T17:52:12;29.60;84.60
58566;DHT22;47788;46.172;-1.158;2022-09-12T17:54:37;29.40;85.90
58566;DHT22;47788;46.172;-1.158;2022-09-12T17:57:04;29.20;86.70
58566;DHT22;47788;46.172;-1.158;2022-09-12T17:59:30;29.10;87.40
58566;DHT22;47788;46.172;-1.158;2022-09-12T18:01:55;28.90;87.30
58566;DHT22;47788;46.172;-1.158;2022-09-12T18:04:42;28.70;87.90
58566;DHT22;47788;46.172;-1.158;2022-09-12T18:07:15;28.60;89.70
58566;DHT22;47788;46.172;-1.158;2022-09-12T18:09:42;28.40;90.90
58566;DHT22;47788;46.172;-1.158;2022-09-12T18:12:08;28.30;91.70
58566;DHT22;47788;46.172;-1.158;2022-09-12T18:14:34;28.10;91.80